createdAt,value
2022-08-09T00:01:10.724Z,4.45
2022-08-09T00:04:03.619Z,5.15
2022-08-09T00:06:30.454Z,5.05
2022-08-09T00:08:58.995Z,5.13
2022-08-09T00:11:56.887Z,4.20
2022-08-09T00:14:17.150Z,6.82
2022-08-09T00:16:49.116Z,6.88
2022-08-09T00:19:18.562Z,4.95
2022-08-09T00:21:56.760Z,5.70
2022-08-09T00:24:27.802Z,7.80
2022-08-09T00:26:54.702Z,9.70
2022-08-09T00:29:39.134Z,7.32
2022-08-09T00:32:08.216Z,8.98
2022-08-09T00:34:39.639Z,7.57
2022-08-09T00:37:13.128Z,6.35
2022-08-09T00:40:13.927Z,4.68
2022-08-09T00:44:10.642Z,8.38
2022-08-09T00:45:16.262Z,9.00
2022-08-09T00:47:43.637Z,8.57
2022-08-09T00:50:14.869Z,9.20
2022-08-09T00:52:41.970Z,8.18
2022-08-09T00:55:16.645Z,5.90
2022-08-09T00:57:59.374Z,9.07
2022-08-09T01:00:27.678Z,7.80
2022-08-09T01:03:11.687Z,7.60
2022-08-09T01:05:53.818Z,7.30
2022-08-09T01:08:49.531Z,6.82
2022-08-09T01:11:37.043Z,7.32
2022-08-09T01:14:47.995Z,7.30
2022-08-09T01:17:34.010Z,8.45
2022-08-09T01:20:09.093Z,8.07
2022-08-09T01:22:55.075Z,9.88
2022-08-09T01:25:24.884Z,8.02
2022-08-09T01:27:54.296Z,7.22
2022-08-09T01:30:28.543Z,6.88
2022-08-09T01:33:06.373Z,7.65
2022-08-09T01:35:47.419Z,6.05
2022-08-09T01:38:23.349Z,9.20
2022-08-09T01:41:06.846Z,8.82
2022-08-09T01:43:50.126Z,11.38
2022-08-09T01:46:26.799Z,8.43
2022-08-09T01:49:14.985Z,9.02
2022-08-09T01:51:53.699Z,8.25
2022-08-09T01:54:25.949Z,6.78
2022-08-09T01:56:54.928Z,7.07
2022-08-09T01:59:24.326Z,9.20
2022-08-09T02:01:59.751Z,9.25
2022-08-09T02:04:29.713Z,9.73
2022-08-09T02:07:15.350Z,8.75
2022-08-09T02:09:59.645Z,8.10
2022-08-09T02:12:30.712Z,11.10
2022-08-09T02:14:59.544Z,11.07
2022-08-09T02:18:00.080Z,9.10
2022-08-09T02:20:25.249Z,10.68
2022-08-09T02:23:08.108Z,10.80
2022-08-09T02:25:42.459Z,8.20
2022-08-09T02:28:24.281Z,8.98
2022-08-09T02:30:58.423Z,10.10
2022-08-09T02:33:58.217Z,10.18
2022-08-09T02:39:06.975Z,12.20
2022-08-09T02:41:50.630Z,11.13
2022-08-09T02:44:30.240Z,12.23
2022-08-09T02:47:01.220Z,10.65
2022-08-09T02:49:38.939Z,10.07
2022-08-09T02:52:13.059Z,15.07
2022-08-09T02:54:54.453Z,11.35
2022-08-09T02:57:25.515Z,12.00
2022-08-09T03:00:11.347Z,13.20
2022-08-09T03:03:00.113Z,9.10
2022-08-09T03:05:29.487Z,11.65
2022-08-09T03:08:04.521Z,13.00
2022-08-09T03:10:33.276Z,11.93
2022-08-09T03:13:01.455Z,13.38
2022-08-09T03:15:40.472Z,12.55
2022-08-09T03:18:19.064Z,13.82
2022-08-09T03:20:59.392Z,14.10
2022-08-09T03:23:26.242Z,11.45
2022-08-09T03:25:57.871Z,12.38
2022-08-09T03:28:27.092Z,12.02
2022-08-09T03:30:55.546Z,13.50
2022-08-09T03:33:23.400Z,13.82
2022-08-09T03:36:13.570Z,16.20
2022-08-09T03:38:43.015Z,15.18
2022-08-09T03:41:16.344Z,14.85
2022-08-09T03:44:07.587Z,16.98
2022-08-09T03:46:32.719Z,15.90
2022-08-09T03:49:04.162Z,16.42
2022-08-09T03:51:55.031Z,17.02
2022-08-09T03:54:32.013Z,17.50
2022-08-09T03:57:17.881Z,16.42
2022-08-09T03:59:54.587Z,15.23
2022-08-09T04:02:28.585Z,15.88
2022-08-09T04:05:06.336Z,14.00
2022-08-09T04:07:52.640Z,15.60
2022-08-09T04:10:28.463Z,16.55
2022-08-09T04:12:57.692Z,16.45
2022-08-09T04:15:39.123Z,13.90
2022-08-09T04:18:16.658Z,17.50
2022-08-09T04:20:46.242Z,16.58
2022-08-09T04:23:16.797Z,14.48
2022-08-09T04:25:51.886Z,14.50
2022-08-09T04:28:30.798Z,15.65
2022-08-09T04:31:09.377Z,16.17
2022-08-09T04:33:51.953Z,16.05
2022-08-09T04:36:24.649Z,19.55
2022-08-09T04:38:53.205Z,15.60
2022-08-09T04:41:23.939Z,16.45
2022-08-09T04:44:06.026Z,14.93
2022-08-09T04:46:57.636Z,18.05
2022-08-09T04:49:22.347Z,14.52
2022-08-09T04:52:07.419Z,17.08
2022-08-09T04:54:36.631Z,13.77
2022-08-09T04:57:04.068Z,16.77
2022-08-09T04:59:31.927Z,14.88
2022-08-09T05:01:58.657Z,16.23
2022-08-09T05:04:31.165Z,15.55
2022-08-09T05:06:58.431Z,15.13
2022-08-09T05:09:25.244Z,15.70
2022-08-09T05:12:09.706Z,17.67
2022-08-09T05:14:38.018Z,15.07
2022-08-09T05:17:15.294Z,15.60
2022-08-09T05:19:57.039Z,16.00
2022-08-09T05:22:33.098Z,17.17
2022-08-09T05:25:12.249Z,15.68
2022-08-09T05:27:45.423Z,14.15
2022-08-09T05:30:13.921Z,16.90
2022-08-09T05:32:41.089Z,15.23
2022-08-09T05:35:11.387Z,12.75
2022-08-09T05:37:47.967Z,14.73
2022-08-09T05:40:18.369Z,12.50
2022-08-09T05:42:45.528Z,12.93
2022-08-09T05:45:14.244Z,11.75
2022-08-09T05:47:52.141Z,13.23
2022-08-09T05:50:36.187Z,14.27
2022-08-09T05:53:21.546Z,12.98
2022-08-09T05:55:58.807Z,12.82
2022-08-09T05:58:25.874Z,14.98
2022-08-09T06:00:53.745Z,15.25
2022-08-09T06:03:20.767Z,15.25
2022-08-09T06:05:57.867Z,14.68
2022-08-09T06:08:32.891Z,12.85
2022-08-09T06:11:00.682Z,13.07
2022-08-09T06:13:28.556Z,12.63
2022-08-09T06:16:01.694Z,9.60
2022-08-09T06:18:32.428Z,14.02
2022-08-09T06:20:59.833Z,12.43
2022-08-09T06:23:58.206Z,10.73
2022-08-09T06:26:21.293Z,10.07
2022-08-09T06:29:00.072Z,13.35
2022-08-09T06:31:31.311Z,12.02
2022-08-09T06:34:06.801Z,9.07
2022-08-09T06:36:34.331Z,9.23
2022-08-09T06:39:02.622Z,11.25
2022-08-09T06:42:07.531Z,12.45
2022-08-09T06:44:22.955Z,8.52
2022-08-09T06:46:55.278Z,9.20
2022-08-09T06:49:44.833Z,7.60
2022-08-09T06:52:10.019Z,7.15
2022-08-09T06:54:39.089Z,10.73
2022-08-09T06:57:08.483Z,8.40
2022-08-09T07:00:51.003Z,9.50
2022-08-09T07:02:22.420Z,8.65
2022-08-09T07:04:57.912Z,7.07
2022-08-09T07:07:58.881Z,7.28
2022-08-09T07:10:29.667Z,9.05
2022-08-09T07:12:58.536Z,7.43
2022-08-09T07:16:39.058Z,8.38
2022-08-09T07:18:14.198Z,6.70
2022-08-09T07:20:43.625Z,7.38
2022-08-09T07:23:18.590Z,6.07
2022-08-09T07:25:52.525Z,7.68
2022-08-09T07:28:29.629Z,6.78
2022-08-09T07:30:56.413Z,6.93
2022-08-09T07:33:23.535Z,10.25
2022-08-09T07:35:54.350Z,8.65
2022-08-09T07:38:23.353Z,4.60
2022-08-09T07:41:08.063Z,8.00
2022-08-09T07:43:49.619Z,6.18
2022-08-09T07:46:19.566Z,6.47
2022-08-09T07:48:52.813Z,5.90
2022-08-09T07:52:04.834Z,7.88
2022-08-09T07:54:14.052Z,5.68
2022-08-09T07:56:49.031Z,6.63
2022-08-09T07:59:25.337Z,7.13
2022-08-09T08:02:00.907Z,7.05
2022-08-09T08:04:32.315Z,6.68
2022-08-09T08:07:15.199Z,8.10
2022-08-09T08:09:55.279Z,6.45
2022-08-09T08:12:43.279Z,5.25
2022-08-09T08:15:17.891Z,7.18
2022-08-09T08:17:52.970Z,4.78
2022-08-09T08:20:30.594Z,5.95
2022-08-09T08:23:06.527Z,8.98
2022-08-09T08:25:45.928Z,4.78
2022-08-09T08:28:18.238Z,5.75
2022-08-09T08:30:53.213Z,3.75
2022-08-09T08:33:23.623Z,5.40
2022-08-09T08:35:59.816Z,5.10
2022-08-09T08:38:29.077Z,4.28
2022-08-09T08:40:57.659Z,5.65
2022-08-09T08:43:27.175Z,3.72
2022-08-09T08:46:03.833Z,2.83
2022-08-09T08:48:51.898Z,6.20
2022-08-09T08:51:22.942Z,4.70
2022-08-09T08:54:04.416Z,3.83
2022-08-09T08:56:42.042Z,5.93
2022-08-09T08:59:19.161Z,4.07
2022-08-09T09:01:53.104Z,5.78
2022-08-09T09:04:37.819Z,4.82
2022-08-09T09:07:15.377Z,4.38
2022-08-09T09:10:02.027Z,4.60
2022-08-09T09:12:35.458Z,3.65
2022-08-09T09:15:05.878Z,5.93
2022-08-09T09:17:49.392Z,6.45
2022-08-09T09:20:21.235Z,5.10
2022-08-09T09:22:57.010Z,2.65
2022-08-09T09:26:02.486Z,3.25
2022-08-09T09:29:02.013Z,6.22
2022-08-09T09:32:01.516Z,2.65
2022-08-09T09:34:15.361Z,4.50
2022-08-09T09:36:51.308Z,4.53
2022-08-09T09:39:25.580Z,3.25
2022-08-09T09:42:25.694Z,4.93
2022-08-09T09:45:01.223Z,4.78
2022-08-09T09:47:30.187Z,4.38
2022-08-09T09:50:15.446Z,5.65
2022-08-09T09:52:53.591Z,2.90
2022-08-09T09:55:31.904Z,4.85
2022-08-09T09:58:19.316Z,4.75
2022-08-09T10:00:53.952Z,2.80
2022-08-09T10:03:44.491Z,3.03
2022-08-09T10:06:13.238Z,6.72
2022-08-09T10:08:54.432Z,1.67
2022-08-09T10:12:00.702Z,3.28
2022-08-09T10:14:32.911Z,4.18
2022-08-09T10:17:39.931Z,2.95
2022-08-09T10:20:01.279Z,4.13
2022-08-09T10:22:41.066Z,2.30
2022-08-09T10:25:11.994Z,2.33
2022-08-09T10:27:57.272Z,2.90
2022-08-09T10:33:29.556Z,3.47
2022-08-09T10:36:09.393Z,2.83
2022-08-09T10:38:56.873Z,2.00
2022-08-09T10:41:26.677Z,2.33
2022-08-09T10:43:59.381Z,2.97
2022-08-09T10:46:54.582Z,3.75
2022-08-09T10:49:50.210Z,1.40
2022-08-09T10:52:32.774Z,1.80
2022-08-09T10:55:24.957Z,2.53
2022-08-09T10:57:56.111Z,2.13
2022-08-09T11:00:29.568Z,3.38
2022-08-09T11:03:18.429Z,1.35
2022-08-09T11:06:18.665Z,3.25
2022-08-09T11:08:51.102Z,1.90
2022-08-09T11:11:20.792Z,1.98
2022-08-09T11:14:28.041Z,2.67
2022-08-09T11:16:56.247Z,3.30
2022-08-09T11:20:11.462Z,3.15
2022-08-09T11:22:47.068Z,1.75
2022-08-09T11:25:45.384Z,2.38
2022-08-09T11:28:38.490Z,2.13
2022-08-09T11:31:49.333Z,2.13
2022-08-09T11:34:43.003Z,2.08
2022-08-09T11:37:25.149Z,4.97
2022-08-09T11:40:23.529Z,2.10
2022-08-09T11:42:55.439Z,2.63
2022-08-09T11:45:42.802Z,3.75
2022-08-09T11:48:24.802Z,2.05
2022-08-09T11:51:37.952Z,2.90
2022-08-09T11:54:27.686Z,2.95
2022-08-09T11:58:00.824Z,2.50
2022-08-09T12:00:27.301Z,2.38
2022-08-09T12:02:55.891Z,3.22
2022-08-09T12:05:32.257Z,2.35
2022-08-09T12:08:01.396Z,2.65
2022-08-09T12:10:39.529Z,2.00
2022-08-09T12:14:10.297Z,4.72
2022-08-09T12:16:04.011Z,1.60
2022-08-09T12:18:33.608Z,1.50
2022-08-09T12:21:03.046Z,5.10
2022-08-09T12:23:56.164Z,2.95
2022-08-09T12:26:19.727Z,1.92
2022-08-09T12:28:59.432Z,2.38
2022-08-09T12:31:59.004Z,2.70
2022-08-09T12:34:38.366Z,1.92
2022-08-09T12:37:09.724Z,1.70
2022-08-09T12:40:10.983Z,4.25
2022-08-09T12:42:43.981Z,1.05
2022-08-09T12:45:34.873Z,3.15
2022-08-09T12:47:58.878Z,1.35
2022-08-09T12:50:25.809Z,1.02
2022-08-09T12:53:08.529Z,1.80
2022-08-09T12:56:16.081Z,2.60
2022-08-09T12:58:28.348Z,1.30
2022-08-09T13:00:56.202Z,1.35
2022-08-09T13:03:53.345Z,1.40
2022-08-09T13:06:34.613Z,3.50
2022-08-09T13:11:39.503Z,1.83
2022-08-09T13:14:42.859Z,1.23
2022-08-09T13:17:04.318Z,1.77
2022-08-09T13:20:09.521Z,0.80
2022-08-09T13:22:45.598Z,2.47
2022-08-09T13:25:16.720Z,4.45
2022-08-09T13:27:48.885Z,1.80
2022-08-09T13:30:50.883Z,1.42
2022-08-09T13:33:51.722Z,1.52
2022-08-09T13:36:24.162Z,2.97
2022-08-09T13:39:31.064Z,2.95
2022-08-09T13:42:00.913Z,1.45
2022-08-09T13:44:30.094Z,1.67
2022-08-09T13:47:30.806Z,1.60
2022-08-09T13:49:57.663Z,3.90
2022-08-09T13:52:27.706Z,2.25
2022-08-09T13:55:00.629Z,2.05
2022-08-09T13:57:35.961Z,1.90
2022-08-09T14:00:09.256Z,1.73
2022-08-09T14:02:42.332Z,3.63
2022-08-09T14:05:57.013Z,2.40
2022-08-09T14:08:10.416Z,2.85
2022-08-09T14:10:49.467Z,2.15
2022-08-09T14:14:16.368Z,1.98
2022-08-09T14:16:15.308Z,1.48
2022-08-09T14:18:49.285Z,2.08
2022-08-09T14:21:20.135Z,3.75
2022-08-09T14:23:53.730Z,3.40
2022-08-09T14:26:25.225Z,1.48
2022-08-09T14:28:52.500Z,2.67
2022-08-09T14:31:19.248Z,2.95
2022-08-09T14:33:54.760Z,3.13
2022-08-09T14:36:24.793Z,3.60
2022-08-09T14:38:54.564Z,1.92
2022-08-09T14:41:34.771Z,3.03
2022-08-09T14:44:07.397Z,1.58
2022-08-09T14:47:00.265Z,2.47
2022-08-09T14:49:26.259Z,1.63
2022-08-09T14:51:58.320Z,1.83
2022-08-09T14:54:28.292Z,2.92
2022-08-09T14:56:57.963Z,1.25
2022-08-09T14:59:28.537Z,2.33
2022-08-09T15:01:55.707Z,3.55
2022-08-09T15:04:23.828Z,3.95
2022-08-09T15:06:54.638Z,1.90
2022-08-09T15:10:03.602Z,1.45
2022-08-09T15:12:09.864Z,1.85
2022-08-09T15:14:41.217Z,3.03
2022-08-09T15:17:09.651Z,2.00
2022-08-09T15:19:59.550Z,2.92
2022-08-09T15:22:26.437Z,1.48
2022-08-09T15:24:54.282Z,2.65
2022-08-09T15:27:23.823Z,4.28
2022-08-09T15:30:56.814Z,2.08
2022-08-09T15:32:41.387Z,3.80
2022-08-09T15:35:40.386Z,2.17
2022-08-09T15:38:10.959Z,1.45
2022-08-09T15:40:44.206Z,4.25
2022-08-09T15:43:13.350Z,2.00
2022-08-09T15:46:07.855Z,2.10
2022-08-09T15:48:31.904Z,2.90
2022-08-09T15:51:00.671Z,2.35
2022-08-09T15:54:03.194Z,1.80
2022-08-09T15:56:29.072Z,2.10
2022-08-09T15:58:58.291Z,2.35
2022-08-09T16:01:31.084Z,2.90
2022-08-09T16:04:01.468Z,3.72
2022-08-09T16:06:35.487Z,2.22
2022-08-09T16:09:05.532Z,1.65
2022-08-09T16:11:33.197Z,1.45
2022-08-09T16:14:06.895Z,3.15
2022-08-09T16:16:36.873Z,2.35
2022-08-09T16:19:07.569Z,2.13
2022-08-09T16:21:35.491Z,3.55
2022-08-09T16:24:04.593Z,1.92
2022-08-09T16:26:35.004Z,2.75
2022-08-09T16:29:12.983Z,3.55
2022-08-09T16:32:18.923Z,4.15
2022-08-09T16:34:56.061Z,3.55
2022-08-09T16:37:53.328Z,2.40
2022-08-09T16:40:10.215Z,4.50
2022-08-09T16:42:37.813Z,2.05
2022-08-09T16:45:06.408Z,3.25
2022-08-09T16:48:41.898Z,2.55
2022-08-09T16:50:29.819Z,3.20
2022-08-09T16:53:03.352Z,2.63
2022-08-09T16:55:57.716Z,3.47
2022-08-09T16:58:22.333Z,2.05
2022-08-09T17:00:50.440Z,3.90
2022-08-09T17:03:24.108Z,2.72
2022-08-09T17:06:07.646Z,1.33
2022-08-09T17:09:02.754Z,2.83
2022-08-09T17:11:40.150Z,3.45
2022-08-09T17:14:25.421Z,3.60
2022-08-09T17:17:00.160Z,2.85
2022-08-09T17:19:47.212Z,2.85
2022-08-09T17:22:35.975Z,1.50
2022-08-09T17:25:10.025Z,3.05
2022-08-09T17:27:49.581Z,2.33
2022-08-09T17:30:28.079Z,2.95
2022-08-09T17:33:04.872Z,3.78
2022-08-09T17:35:35.110Z,3.38
2022-08-09T17:38:11.726Z,3.78
2022-08-09T17:40:49.816Z,2.78
2022-08-09T17:43:33.655Z,2.00
2022-08-09T17:46:06.838Z,2.28
2022-08-09T17:48:38.778Z,5.00
2022-08-09T17:51:17.203Z,2.05
2022-08-09T17:53:52.077Z,1.58
2022-08-09T17:56:27.218Z,3.78
2022-08-09T17:58:57.788Z,3.78
2022-08-09T18:01:57.863Z,3.88
2022-08-09T18:04:15.588Z,1.85
2022-08-09T18:06:54.332Z,2.90
2022-08-09T18:09:23.507Z,2.97
2022-08-09T18:12:05.872Z,2.10
2022-08-09T18:14:49.863Z,3.22
2022-08-09T18:17:27.215Z,4.88
2022-08-09T18:20:55.956Z,2.47
2022-08-09T18:22:56.469Z,3.67
2022-08-09T18:25:52.613Z,2.45
2022-08-09T18:28:21.589Z,3.35
2022-08-09T18:30:59.189Z,2.20
2022-08-09T18:33:26.314Z,1.98
2022-08-09T18:36:00.163Z,2.08
2022-08-09T18:38:27.355Z,3.15
2022-08-09T18:40:56.543Z,5.78
2022-08-09T18:43:24.673Z,3.72
2022-08-09T18:46:49.610Z,2.90
2022-08-09T18:48:38.288Z,7.03
2022-08-09T18:51:09.359Z,1.60
2022-08-09T18:54:00.585Z,1.25
2022-08-09T18:56:28.532Z,2.13
2022-08-09T18:58:57.604Z,4.97
2022-08-09T19:01:27.819Z,3.10
2022-08-09T19:04:10.552Z,1.30
2022-08-09T19:06:39.830Z,2.47
2022-08-09T19:09:20.565Z,2.15
2022-08-09T19:12:04.849Z,4.95
2022-08-09T19:14:31.848Z,2.38
2022-08-09T19:17:00.806Z,4.20
2022-08-09T19:19:29.044Z,3.75
2022-08-09T19:22:08.552Z,6.28
2022-08-09T19:25:07.567Z,3.00
2022-08-09T19:27:28.495Z,5.18
2022-08-09T19:30:25.129Z,6.07
2022-08-09T19:32:43.381Z,2.10
2022-08-09T19:35:13.681Z,3.10
2022-08-09T19:37:54.363Z,4.47
2022-08-09T19:40:23.757Z,2.53
2022-08-09T19:43:10.330Z,1.65
2022-08-09T19:45:46.382Z,1.70
2022-08-09T19:48:14.070Z,3.28
2022-08-09T19:50:50.773Z,5.18
2022-08-09T19:53:23.501Z,2.72
2022-08-09T19:56:06.155Z,2.70
2022-08-09T19:58:39.380Z,4.30
2022-08-09T20:01:06.168Z,2.83
2022-08-09T20:04:09.596Z,2.08
2022-08-09T20:06:29.661Z,3.25
2022-08-09T20:08:59.367Z,2.47
2022-08-09T20:11:43.362Z,2.83
2022-08-09T20:14:20.165Z,3.60
2022-08-09T20:16:54.351Z,3.28
2022-08-09T20:19:42.481Z,3.03
2022-08-09T20:22:14.289Z,3.17
2022-08-09T20:24:51.902Z,2.25
2022-08-09T20:27:25.665Z,3.13
2022-08-09T20:29:57.938Z,2.42
2022-08-09T20:32:33.307Z,3.10
2022-08-09T20:35:14.270Z,2.90
2022-08-09T20:40:32.019Z,5.22
2022-08-09T20:43:19.012Z,4.10
2022-08-09T20:45:59.801Z,3.38
2022-08-09T20:48:32.057Z,3.85
2022-08-09T20:51:00.965Z,3.67
2022-08-09T20:53:35.220Z,3.55
2022-08-09T20:56:17.422Z,3.50
2022-08-09T20:58:57.963Z,2.42
2022-08-09T21:01:35.010Z,2.50
2022-08-09T21:05:51.828Z,2.95
2022-08-09T21:07:13.145Z,3.08
2022-08-09T21:09:56.183Z,5.57
2022-08-09T21:12:32.187Z,2.55
2022-08-09T21:15:01.391Z,2.08
2022-08-09T21:18:24.853Z,2.47
2022-08-09T21:20:23.030Z,2.10
2022-08-09T21:22:54.492Z,2.38
2022-08-09T21:25:44.217Z,2.05
2022-08-09T21:28:35.434Z,1.77
2022-08-09T21:31:13.675Z,1.98
2022-08-09T21:33:51.209Z,4.43
2022-08-09T21:36:20.918Z,2.85
2022-08-09T21:42:03.527Z,4.18
2022-08-09T21:44:32.983Z,2.83
2022-08-09T21:47:07.665Z,4.30
2022-08-09T21:49:39.197Z,2.55
2022-08-09T21:52:14.807Z,1.60
2022-08-09T21:54:57.080Z,1.77
2022-08-09T21:57:38.763Z,3.25
2022-08-09T22:00:25.924Z,3.10
2022-08-09T22:02:59.387Z,2.83
2022-08-09T22:05:36.745Z,3.78
2022-08-09T22:08:13.141Z,1.88
2022-08-09T22:11:05.272Z,2.42
2022-08-09T22:13:43.380Z,2.08
2022-08-09T22:16:13.406Z,2.78
2022-08-09T22:18:53.572Z,3.17
2022-08-09T22:21:24.741Z,3.17
2022-08-09T22:24:01.601Z,2.13
2022-08-09T22:26:35.416Z,3.55
2022-08-09T22:29:07.363Z,2.05
2022-08-09T22:31:36.808Z,3.58
2022-08-09T22:34:09.787Z,2.38
2022-08-09T22:36:46.370Z,1.77
2022-08-09T22:39:46.994Z,3.50
2022-08-09T22:42:02.463Z,2.22
2022-08-09T22:44:29.857Z,2.92
2022-08-09T22:48:13.938Z,3.88
2022-08-09T22:49:47.553Z,1.52
2022-08-09T22:52:19.671Z,2.92
2022-08-09T22:54:47.655Z,2.28
2022-08-09T22:57:17.091Z,2.30
2022-08-09T22:59:57.431Z,3.00
2022-08-09T23:02:26.040Z,3.85
2022-08-09T23:04:55.266Z,2.65
2022-08-09T23:08:29.150Z,6.90
2022-08-09T23:10:31.702Z,4.38
2022-08-09T23:12:58.913Z,2.10
2022-08-09T23:15:26.831Z,1.88
2022-08-09T23:17:53.861Z,2.15
2022-08-09T23:20:20.907Z,2.58
2022-08-09T23:22:47.617Z,2.17
2022-08-09T23:25:17.510Z,2.10
2022-08-09T23:27:58.443Z,1.90
2022-08-09T23:30:33.588Z,5.80
2022-08-09T23:33:02.494Z,3.55
2022-08-09T23:35:29.258Z,1.63
2022-08-09T23:37:56.112Z,2.42
2022-08-09T23:40:22.937Z,1.67
2022-08-09T23:42:49.713Z,1.75
2022-08-09T23:45:37.281Z,2.72
2022-08-09T23:48:08.539Z,2.83
2022-08-09T23:50:35.961Z,2.33
2022-08-09T23:53:02.853Z,1.83
2022-08-09T23:55:30.381Z,3.95
2022-08-09T23:58:10.310Z,2.83
